sensor_id;sensor_type;location;lat;lon;timestamp;P1;durP1;ratioP1;P2;durP2;ratioP2
45322;SDS011;31382;50.200;8.674;2024-03-23T00:57:54;11.15;;;7.88;;
45322;SDS011;31382;50.200;8.674;2024-03-23T01:02:55;16.05;;;7.63;;
45322;SDS011;31382;50.200;8.674;2024-03-23T01:07:55;15.85;;;7.43;;
45322;SDS011;31382;50.200;8.674;2024-03-23T01:12:56;13.60;;;7.25;;
45322;SDS011;31382;50.200;8.674;2024-03-23T01:17:56;15.35;;;7.85;;
45322;SDS011;31382;50.200;8.674;2024-03-23T01:22:57;23.60;;;9.25;;
45322;SDS011;31382;50.200;8.674;2024-03-23T01:27:57;15.50;;;8.05;;
45322;SDS011;31382;50.200;8.674;2024-03-23T01:32:58;12.77;;;7.35;;
45322;SDS011;31382;50.200;8.674;2024-03-23T01:37:58;14.93;;;7.88;;
45322;SDS011;31382;50.200;8.674;2024-03-23T01:43:01;15.95;;;7.85;;
45322;SDS011;31382;50.200;8.674;2024-03-23T01:48:04;16.85;;;7.85;;
45322;SDS011;31382;50.200;8.674;2024-03-23T01:53:05;17.02;;;8.00;;
45322;SDS011;31382;50.200;8.674;2024-03-23T01:58:07;12.20;;;8.15;;
45322;SDS011;31382;50.200;8.674;2024-03-23T02:03:26;14.27;;;7.80;;
45322;SDS011;31382;50.200;8.674;2024-03-23T02:08:27;12.38;;;7.32;;
45322;SDS011;31382;50.200;8.674;2024-03-23T02:13:29;14.25;;;7.60;;
45322;SDS011;31382;50.200;8.674;2024-03-23T02:18:29;18.65;;;8.70;;
45322;SDS011;31382;50.200;8.674;2024-03-23T02:23:30;14.93;;;8.18;;
45322;SDS011;31382;50.200;8.674;2024-03-23T02:28:30;13.65;;;7.57;;
45322;SDS011;31382;50.200;8.674;2024-03-23T02:33:31;18.15;;;8.82;;
45322;SDS011;31382;50.200;8.674;2024-03-23T02:38:33;15.25;;;8.93;;
45322;SDS011;31382;50.200;8.674;2024-03-23T02:43:33;23.10;;;10.23;;
45322;SDS011;31382;50.200;8.674;2024-03-23T02:48:34;21.20;;;10.43;;
45322;SDS011;31382;50.200;8.674;2024-03-23T02:53:34;20.15;;;10.63;;
45322;SDS011;31382;50.200;8.674;2024-03-23T02:58:35;22.80;;;10.50;;
45322;SDS011;31382;50.200;8.674;2024-03-23T03:03:35;24.60;;;9.82;;
45322;SDS011;31382;50.200;8.674;2024-03-23T03:08:36;25.23;;;11.82;;
45322;SDS011;31382;50.200;8.674;2024-03-23T03:13:36;19.70;;;9.57;;
45322;SDS011;31382;50.200;8.674;2024-03-23T03:18:37;16.83;;;8.77;;
45322;SDS011;31382;50.200;8.674;2024-03-23T03:23:38;20.00;;;9.40;;
45322;SDS011;31382;50.200;8.674;2024-03-23T03:28:38;17.60;;;8.63;;
45322;SDS011;31382;50.200;8.674;2024-03-23T03:33:39;16.33;;;8.38;;
45322;SDS011;31382;50.200;8.674;2024-03-23T03:38:39;19.77;;;9.48;;
45322;SDS011;31382;50.200;8.674;2024-03-23T03:43:40;16.85;;;9.02;;
45322;SDS011;31382;50.200;8.674;2024-03-23T03:48:40;21.48;;;10.45;;
45322;SDS011;31382;50.200;8.674;2024-03-23T03:53:41;21.60;;;10.45;;
45322;SDS011;31382;50.200;8.674;2024-03-23T03:58:41;21.63;;;10.82;;
45322;SDS011;31382;50.200;8.674;2024-03-23T04:03:42;26.10;;;11.75;;
45322;SDS011;31382;50.200;8.674;2024-03-23T04:08:44;25.92;;;11.85;;
45322;SDS011;31382;50.200;8.674;2024-03-23T04:13:44;25.90;;;11.70;;
45322;SDS011;31382;50.200;8.674;2024-03-23T04:18:45;22.33;;;9.52;;
45322;SDS011;31382;50.200;8.674;2024-03-23T04:23:47;12.43;;;4.93;;
45322;SDS011;31382;50.200;8.674;2024-03-23T04:28:48;4.53;;;1.83;;
45322;SDS011;31382;50.200;8.674;2024-03-23T04:33:48;3.38;;;1.10;;
45322;SDS011;31382;50.200;8.674;2024-03-23T04:38:49;1.30;;;0.50;;
45322;SDS011;31382;50.200;8.674;2024-03-23T04:43:50;0.85;;;0.45;;
45322;SDS011;31382;50.200;8.674;2024-03-23T04:48:50;0.70;;;0.20;;
45322;SDS011;31382;50.200;8.674;2024-03-23T04:53:51;0.20;;;0.10;;
45322;SDS011;31382;50.200;8.674;2024-03-23T04:58:51;0.17;;;0.10;;
45322;SDS011;31382;50.200;8.674;2024-03-23T05:03:52;0.30;;;0.20;;
45322;SDS011;31382;50.200;8.674;2024-03-23T05:08:53;0.32;;;0.10;;
45322;SDS011;31382;50.200;8.674;2024-03-23T05:13:53;0.55;;;0.10;;
45322;SDS011;31382;50.200;8.674;2024-03-23T05:18:54;0.63;;;0.20;;
45322;SDS011;31382;50.200;8.674;2024-03-23T05:23:54;0.20;;;0.13;;
45322;SDS011;31382;50.200;8.674;2024-03-23T05:28:55;0.20;;;0.10;;
45322;SDS011;31382;50.200;8.674;2024-03-23T05:33:56;0.68;;;0.20;;
45322;SDS011;31382;50.200;8.674;2024-03-23T05:38:56;0.30;;;0.20;;
45322;SDS011;31382;50.200;8.674;2024-03-23T05:43:57;0.95;;;0.30;;
45322;SDS011;31382;50.200;8.674;2024-03-23T05:48:58;4.03;;;0.25;;
45322;SDS011;31382;50.200;8.674;2024-03-23T05:54:02;0.73;;;0.20;;
45322;SDS011;31382;50.200;8.674;2024-03-23T05:59:02;0.20;;;0.20;;
45322;SDS011;31382;50.200;8.674;2024-03-23T06:04:03;0.15;;;0.10;;
45322;SDS011;31382;50.200;8.674;2024-03-23T06:09:04;0.35;;;0.00;;
45322;SDS011;31382;50.200;8.674;2024-03-23T06:14:04;0.32;;;0.13;;
45322;SDS011;31382;50.200;8.674;2024-03-23T06:19:06;0.10;;;0.10;;
45322;SDS011;31382;50.200;8.674;2024-03-23T06:24:07;0.15;;;0.03;;
45322;SDS011;31382;50.200;8.674;2024-03-23T06:29:07;0.03;;;0.00;;
45322;SDS011;31382;50.200;8.674;2024-03-23T06:34:08;0.47;;;0.10;;
45322;SDS011;31382;50.200;8.674;2024-03-23T06:39:09;0.10;;;0.00;;
45322;SDS011;31382;50.200;8.674;2024-03-23T06:44:12;0.13;;;0.00;;
45322;SDS011;31382;50.200;8.674;2024-03-23T06:49:13;0.15;;;0.10;;
45322;SDS011;31382;50.200;8.674;2024-03-23T06:54:13;0.10;;;0.00;;
45322;SDS011;31382;50.200;8.674;2024-03-23T06:59:15;0.05;;;0.03;;
45322;SDS011;31382;50.200;8.674;2024-03-23T07:04:15;0.52;;;0.00;;
45322;SDS011;31382;50.200;8.674;2024-03-23T07:09:16;1.77;;;0.10;;
45322;SDS011;31382;50.200;8.674;2024-03-23T07:14:16;2.40;;;0.38;;
45322;SDS011;31382;50.200;8.674;2024-03-23T07:19:17;2.75;;;0.10;;
45322;SDS011;31382;50.200;8.674;2024-03-23T07:24:18;0.30;;;0.20;;
45322;SDS011;31382;50.200;8.674;2024-03-23T07:29:18;2.35;;;0.28;;
45322;SDS011;31382;50.200;8.674;2024-03-23T07:34:19;2.92;;;0.50;;
45322;SDS011;31382;50.200;8.674;2024-03-23T07:39:20;3.65;;;0.50;;
45322;SDS011;31382;50.200;8.674;2024-03-23T07:44:20;4.00;;;0.30;;
45322;SDS011;31382;50.200;8.674;2024-03-23T07:49:21;3.45;;;0.82;;
45322;SDS011;31382;50.200;8.674;2024-03-23T07:54:21;4.80;;;1.23;;
45322;SDS011;31382;50.200;8.674;2024-03-23T07:59:22;4.20;;;0.80;;
45322;SDS011;31382;50.200;8.674;2024-03-23T08:04:22;2.42;;;0.50;;
45322;SDS011;31382;50.200;8.674;2024-03-23T08:09:23;6.97;;;2.13;;
45322;SDS011;31382;50.200;8.674;2024-03-23T08:14:23;4.97;;;1.50;;
45322;SDS011;31382;50.200;8.674;2024-03-23T08:19:24;5.75;;;1.42;;
45322;SDS011;31382;50.200;8.674;2024-03-23T08:24:25;6.32;;;2.28;;
45322;SDS011;31382;50.200;8.674;2024-03-23T08:29:25;7.07;;;2.65;;
45322;SDS011;31382;50.200;8.674;2024-03-23T08:34:26;4.68;;;1.42;;
45322;SDS011;31382;50.200;8.674;2024-03-23T08:39:26;4.63;;;1.83;;
45322;SDS011;31382;50.200;8.674;2024-03-23T08:44:27;5.28;;;2.55;;
45322;SDS011;31382;50.200;8.674;2024-03-23T08:49:27;6.43;;;2.15;;
45322;SDS011;31382;50.200;8.674;2024-03-23T08:54:28;8.13;;;2.60;;
45322;SDS011;31382;50.200;8.674;2024-03-23T08:59:29;4.30;;;1.70;;
45322;SDS011;31382;50.200;8.674;2024-03-23T09:04:29;5.35;;;1.90;;
45322;SDS011;31382;50.200;8.674;2024-03-23T09:09:30;7.47;;;1.15;;
45322;SDS011;31382;50.200;8.674;2024-03-23T09:14:31;5.30;;;1.13;;
45322;SDS011;31382;50.200;8.674;2024-03-23T09:19:32;6.32;;;1.67;;
45322;SDS011;31382;50.200;8.674;2024-03-23T09:24:33;6.78;;;1.65;;
45322;SDS011;31382;50.200;8.674;2024-03-23T09:29:33;4.65;;;1.15;;
45322;SDS011;31382;50.200;8.674;2024-03-23T09:34:34;10.25;;;2.17;;
45322;SDS011;31382;50.200;8.674;2024-03-23T09:39:34;6.28;;;1.33;;
45322;SDS011;31382;50.200;8.674;2024-03-23T09:44:35;6.50;;;1.55;;
45322;SDS011;31382;50.200;8.674;2024-03-23T09:49:37;4.28;;;1.23;;
45322;SDS011;31382;50.200;8.674;2024-03-23T09:54:38;5.70;;;0.80;;
45322;SDS011;31382;50.200;8.674;2024-03-23T09:59:39;6.53;;;0.77;;
45322;SDS011;31382;50.200;8.674;2024-03-23T10:04:40;6.93;;;0.90;;
45322;SDS011;31382;50.200;8.674;2024-03-23T10:09:42;7.88;;;0.73;;
45322;SDS011;31382;50.200;8.674;2024-03-23T10:14:43;2.60;;;0.80;;
45322;SDS011;31382;50.200;8.674;2024-03-23T10:19:44;6.15;;;0.80;;
45322;SDS011;31382;50.200;8.674;2024-03-23T10:24:49;5.90;;;1.15;;
45322;SDS011;31382;50.200;8.674;2024-03-23T10:29:50;6.30;;;0.55;;
45322;SDS011;31382;50.200;8.674;2024-03-23T10:34:51;7.38;;;0.55;;
45322;SDS011;31382;50.200;8.674;2024-03-23T10:39:51;5.80;;;1.33;;
45322;SDS011;31382;50.200;8.674;2024-03-23T10:44:52;2.30;;;0.60;;
45322;SDS011;31382;50.200;8.674;2024-03-23T10:49:53;2.60;;;0.40;;
45322;SDS011;31382;50.200;8.674;2024-03-23T10:54:54;1.95;;;0.50;;
45322;SDS011;31382;50.200;8.674;2024-03-23T10:59:56;10.40;;;0.60;;
45322;SDS011;31382;50.200;8.674;2024-03-23T11:04:58;2.90;;;0.70;;
45322;SDS011;31382;50.200;8.674;2024-03-23T11:09:58;3.83;;;0.55;;
45322;SDS011;31382;50.200;8.674;2024-03-23T11:15:10;8.15;;;1.33;;
45322;SDS011;31382;50.200;8.674;2024-03-23T11:20:12;2.72;;;0.38;;
45322;SDS011;31382;50.200;8.674;2024-03-23T11:25:26;3.00;;;0.30;;
45322;SDS011;31382;50.200;8.674;2024-03-23T11:30:27;2.03;;;0.30;;
45322;SDS011;31382;50.200;8.674;2024-03-23T11:35:29;0.82;;;0.20;;
45322;SDS011;31382;50.200;8.674;2024-03-23T11:40:33;5.07;;;0.82;;
45322;SDS011;31382;50.200;8.674;2024-03-23T11:45:35;4.18;;;0.40;;
45322;SDS011;31382;50.200;8.674;2024-03-23T11:50:41;4.55;;;0.50;;
45322;SDS011;31382;50.200;8.674;2024-03-23T11:55:53;5.20;;;1.05;;
45322;SDS011;31382;50.200;8.674;2024-03-23T12:00:56;3.17;;;0.50;;
45322;SDS011;31382;50.200;8.674;2024-03-23T12:05:58;3.65;;;0.75;;
45322;SDS011;31382;50.200;8.674;2024-03-23T12:11:07;4.13;;;0.90;;
45322;SDS011;31382;50.200;8.674;2024-03-23T12:16:10;4.22;;;0.70;;
45322;SDS011;31382;50.200;8.674;2024-03-23T12:21:12;3.70;;;0.70;;
45322;SDS011;31382;50.200;8.674;2024-03-23T12:26:13;2.90;;;1.33;;
45322;SDS011;31382;50.200;8.674;2024-03-23T12:31:13;3.30;;;1.33;;
45322;SDS011;31382;50.200;8.674;2024-03-23T12:36:14;1.58;;;0.50;;
45322;SDS011;31382;50.200;8.674;2024-03-23T12:41:15;4.35;;;0.70;;
45322;SDS011;31382;50.200;8.674;2024-03-23T12:46:15;7.30;;;0.60;;
45322;SDS011;31382;50.200;8.674;2024-03-23T12:51:16;2.65;;;0.50;;
45322;SDS011;31382;50.200;8.674;2024-03-23T12:56:16;2.28;;;0.70;;
45322;SDS011;31382;50.200;8.674;2024-03-23T13:01:17;4.10;;;1.70;;
45322;SDS011;31382;50.200;8.674;2024-03-23T13:06:18;2.65;;;0.60;;
45322;SDS011;31382;50.200;8.674;2024-03-23T13:11:19;3.42;;;0.30;;
45322;SDS011;31382;50.200;8.674;2024-03-23T13:16:19;2.30;;;0.30;;
45322;SDS011;31382;50.200;8.674;2024-03-23T13:21:20;0.98;;;0.30;;
45322;SDS011;31382;50.200;8.674;2024-03-23T13:26:20;1.40;;;0.30;;
45322;SDS011;31382;50.200;8.674;2024-03-23T13:31:21;1.70;;;0.30;;
45322;SDS011;31382;50.200;8.674;2024-03-23T13:36:21;0.17;;;0.10;;
45322;SDS011;31382;50.200;8.674;2024-03-23T13:41:22;0.63;;;0.13;;
45322;SDS011;31382;50.200;8.674;2024-03-23T13:46:22;0.73;;;0.13;;
45322;SDS011;31382;50.200;8.674;2024-03-23T13:51:23;0.52;;;0.15;;
45322;SDS011;31382;50.200;8.674;2024-03-23T13:56:28;0.13;;;0.05;;
45322;SDS011;31382;50.200;8.674;2024-03-23T14:01:31;1.00;;;0.20;;
45322;SDS011;31382;50.200;8.674;2024-03-23T14:06:32;2.10;;;0.30;;
45322;SDS011;31382;50.200;8.674;2024-03-23T14:11:32;1.10;;;0.10;;
45322;SDS011;31382;50.200;8.674;2024-03-23T14:16:33;0.65;;;0.10;;
45322;SDS011;31382;50.200;8.674;2024-03-23T14:21:33;0.88;;;0.10;;
45322;SDS011;31382;50.200;8.674;2024-03-23T14:26:37;0.28;;;0.20;;
45322;SDS011;31382;50.200;8.674;2024-03-23T14:31:38;0.30;;;0.00;;
45322;SDS011;31382;50.200;8.674;2024-03-23T14:36:39;1.33;;;0.13;;
45322;SDS011;31382;50.200;8.674;2024-03-23T14:41:39;1.10;;;0.30;;
45322;SDS011;31382;50.200;8.674;2024-03-23T14:46:40;0.25;;;0.00;;
45322;SDS011;31382;50.200;8.674;2024-03-23T14:51:40;2.33;;;0.10;;
45322;SDS011;31382;50.200;8.674;2024-03-23T14:56:41;0.40;;;0.35;;
45322;SDS011;31382;50.200;8.674;2024-03-23T15:01:42;0.90;;;0.10;;
45322;SDS011;31382;50.200;8.674;2024-03-23T15:06:42;1.17;;;0.17;;
45322;SDS011;31382;50.200;8.674;2024-03-23T15:11:43;0.40;;;0.10;;
45322;SDS011;31382;50.200;8.674;2024-03-23T15:16:43;0.10;;;0.10;;
45322;SDS011;31382;50.200;8.674;2024-03-23T15:21:44;1.50;;;0.10;;
45322;SDS011;31382;50.200;8.674;2024-03-23T15:26:44;0.40;;;0.10;;
45322;SDS011;31382;50.200;8.674;2024-03-23T15:31:45;0.30;;;0.20;;
45322;SDS011;31382;50.200;8.674;2024-03-23T15:36:46;0.75;;;0.10;;
45322;SDS011;31382;50.200;8.674;2024-03-23T15:41:47;3.42;;;0.10;;
45322;SDS011;31382;50.200;8.674;2024-03-23T15:46:48;1.02;;;0.20;;
45322;SDS011;31382;50.200;8.674;2024-03-23T15:51:48;2.83;;;0.10;;
45322;SDS011;31382;50.200;8.674;2024-03-23T15:56:49;1.77;;;0.40;;
45322;SDS011;31382;50.200;8.674;2024-03-23T16:01:49;0.30;;;0.10;;
45322;SDS011;31382;50.200;8.674;2024-03-23T16:06:50;2.85;;;0.70;;
45322;SDS011;31382;50.200;8.674;2024-03-23T16:11:50;3.83;;;0.20;;
45322;SDS011;31382;50.200;8.674;2024-03-23T16:16:51;0.10;;;0.10;;
45322;SDS011;31382;50.200;8.674;2024-03-23T16:21:51;1.83;;;0.05;;
45322;SDS011;31382;50.200;8.674;2024-03-23T16:26:52;1.50;;;0.20;;
45322;SDS011;31382;50.200;8.674;2024-03-23T16:31:52;2.83;;;0.40;;
45322;SDS011;31382;50.200;8.674;2024-03-23T16:36:53;1.10;;;0.20;;
45322;SDS011;31382;50.200;8.674;2024-03-23T16:41:53;2.35;;;0.30;;
45322;SDS011;31382;50.200;8.674;2024-03-23T16:46:53;1.58;;;0.20;;
45322;SDS011;31382;50.200;8.674;2024-03-23T16:51:54;2.97;;;0.20;;
45322;SDS011;31382;50.200;8.674;2024-03-23T16:56:54;1.48;;;0.20;;
45322;SDS011;31382;50.200;8.674;2024-03-23T17:01:55;1.20;;;0.10;;
45322;SDS011;31382;50.200;8.674;2024-03-23T17:06:55;1.45;;;0.30;;
45322;SDS011;31382;50.200;8.674;2024-03-23T17:11:56;1.13;;;0.30;;
45322;SDS011;31382;50.200;8.674;2024-03-23T17:16:56;1.55;;;0.20;;
45322;SDS011;31382;50.200;8.674;2024-03-23T17:21:57;1.50;;;0.40;;
45322;SDS011;31382;50.200;8.674;2024-03-23T17:26:57;0.77;;;0.20;;
45322;SDS011;31382;50.200;8.674;2024-03-23T17:31:58;2.90;;;0.98;;
45322;SDS011;31382;50.200;8.674;2024-03-23T17:36:58;3.45;;;0.40;;
45322;SDS011;31382;50.200;8.674;2024-03-23T17:41:59;1.60;;;0.30;;
45322;SDS011;31382;50.200;8.674;2024-03-23T17:46:59;1.33;;;0.10;;
45322;SDS011;31382;50.200;8.674;2024-03-23T17:52:00;0.10;;;0.00;;
45322;SDS011;31382;50.200;8.674;2024-03-23T17:57:07;0.20;;;0.08;;
45322;SDS011;31382;50.200;8.674;2024-03-23T18:02:08;0.20;;;0.00;;
45322;SDS011;31382;50.200;8.674;2024-03-23T18:07:08;0.57;;;0.38;;
45322;SDS011;31382;50.200;8.674;2024-03-23T18:12:09;1.42;;;0.10;;
45322;SDS011;31382;50.200;8.674;2024-03-23T18:17:10;2.70;;;0.20;;
45322;SDS011;31382;50.200;8.674;2024-03-23T18:22:11;11.48;;;2.42;;
45322;SDS011;31382;50.200;8.674;2024-03-23T18:27:12;3.50;;;1.27;;
45322;SDS011;31382;50.200;8.674;2024-03-23T18:32:13;5.50;;;1.40;;
45322;SDS011;31382;50.200;8.674;2024-03-23T18:37:14;5.32;;;1.00;;
45322;SDS011;31382;50.200;8.674;2024-03-23T18:42:14;2.30;;;0.73;;
45322;SDS011;31382;50.200;8.674;2024-03-23T18:47:15;1.45;;;0.30;;
45322;SDS011;31382;50.200;8.674;2024-03-23T18:52:15;3.80;;;0.32;;
45322;SDS011;31382;50.200;8.674;2024-03-23T18:57:16;0.43;;;0.30;;
45322;SDS011;31382;50.200;8.674;2024-03-23T19:02:16;1.30;;;0.40;;
45322;SDS011;31382;50.200;8.674;2024-03-23T19:07:17;3.60;;;0.30;;
45322;SDS011;31382;50.200;8.674;2024-03-23T19:12:17;1.48;;;0.30;;
45322;SDS011;31382;50.200;8.674;2024-03-23T19:17:18;0.65;;;0.20;;
45322;SDS011;31382;50.200;8.674;2024-03-23T19:22:19;0.70;;;0.10;;
45322;SDS011;31382;50.200;8.674;2024-03-23T19:27:20;1.48;;;0.20;;
45322;SDS011;31382;50.200;8.674;2024-03-23T19:32:20;8.07;;;1.98;;
45322;SDS011;31382;50.200;8.674;2024-03-23T19:37:21;1.35;;;0.22;;
45322;SDS011;31382;50.200;8.674;2024-03-23T19:42:22;1.38;;;0.40;;
45322;SDS011;31382;50.200;8.674;2024-03-23T19:47:22;2.50;;;0.50;;
45322;SDS011;31382;50.200;8.674;2024-03-23T19:52:23;1.88;;;0.15;;
45322;SDS011;31382;50.200;8.674;2024-03-23T19:57:23;4.40;;;0.75;;
45322;SDS011;31382;50.200;8.674;2024-03-23T20:02:24;1.25;;;0.30;;
45322;SDS011;31382;50.200;8.674;2024-03-23T20:07:24;1.80;;;0.30;;
45322;SDS011;31382;50.200;8.674;2024-03-23T20:12:25;0.47;;;0.30;;
45322;SDS011;31382;50.200;8.674;2024-03-23T20:17:25;0.40;;;0.30;;
45322;SDS011;31382;50.200;8.674;2024-03-23T20:22:27;2.10;;;0.20;;
45322;SDS011;31382;50.200;8.674;2024-03-23T20:27:27;2.90;;;0.60;;
45322;SDS011;31382;50.200;8.674;2024-03-23T20:32:28;3.13;;;0.50;;
45322;SDS011;31382;50.200;8.674;2024-03-23T20:37:29;2.78;;;0.35;;
45322;SDS011;31382;50.200;8.674;2024-03-23T20:42:29;2.08;;;0.50;;
45322;SDS011;31382;50.200;8.674;2024-03-23T20:47:30;1.90;;;0.30;;
45322;SDS011;31382;50.200;8.674;2024-03-23T20:52:32;0.70;;;0.30;;
45322;SDS011;31382;50.200;8.674;2024-03-23T20:57:34;4.38;;;0.60;;
45322;SDS011;31382;50.200;8.674;2024-03-23T21:02:35;1.75;;;0.50;;
45322;SDS011;31382;50.200;8.674;2024-03-23T21:07:36;2.45;;;0.70;;
45322;SDS011;31382;50.200;8.674;2024-03-23T21:12:36;1.52;;;0.40;;
45322;SDS011;31382;50.200;8.674;2024-03-23T21:17:37;1.85;;;1.17;;
45322;SDS011;31382;50.200;8.674;2024-03-23T21:22:38;0.77;;;0.38;;
45322;SDS011;31382;50.200;8.674;2024-03-23T21:27:39;1.92;;;0.43;;
45322;SDS011;31382;50.200;8.674;2024-03-23T21:32:40;1.20;;;0.40;;
45322;SDS011;31382;50.200;8.674;2024-03-23T21:37:40;1.83;;;0.50;;
45322;SDS011;31382;50.200;8.674;2024-03-23T21:42:41;1.73;;;0.45;;
45322;SDS011;31382;50.200;8.674;2024-03-23T21:47:43;2.63;;;0.25;;
45322;SDS011;31382;50.200;8.674;2024-03-23T21:52:43;4.70;;;1.05;;
45322;SDS011;31382;50.200;8.674;2024-03-23T21:57:46;1.95;;;0.45;;
45322;SDS011;31382;50.200;8.674;2024-03-23T22:02:48;1.77;;;0.55;;
45322;SDS011;31382;50.200;8.674;2024-03-23T22:07:49;1.83;;;0.70;;
45322;SDS011;31382;50.200;8.674;2024-03-23T22:12:50;2.08;;;0.50;;
45322;SDS011;31382;50.200;8.674;2024-03-23T22:17:50;1.17;;;0.40;;
45322;SDS011;31382;50.200;8.674;2024-03-23T22:22:51;0.82;;;0.60;;
45322;SDS011;31382;50.200;8.674;2024-03-23T22:27:51;1.38;;;0.65;;
45322;SDS011;31382;50.200;8.674;2024-03-23T22:32:52;5.40;;;0.80;;
45322;SDS011;31382;50.200;8.674;2024-03-23T22:37:54;4.78;;;1.00;;
45322;SDS011;31382;50.200;8.674;2024-03-23T22:42:55;5.97;;;0.85;;
45322;SDS011;31382;50.200;8.674;2024-03-23T22:47:55;3.80;;;0.80;;
45322;SDS011;31382;50.200;8.674;2024-03-23T22:52:56;1.48;;;0.70;;
45322;SDS011;31382;50.200;8.674;2024-03-23T22:57:57;1.73;;;0.60;;
45322;SDS011;31382;50.200;8.674;2024-03-23T23:02:57;2.25;;;0.60;;
45322;SDS011;31382;50.200;8.674;2024-03-23T23:07:58;2.25;;;0.60;;
45322;SDS011;31382;50.200;8.674;2024-03-23T23:12:59;5.45;;;0.80;;
45322;SDS011;31382;50.200;8.674;2024-03-23T23:17:59;3.38;;;1.00;;
45322;SDS011;31382;50.200;8.674;2024-03-23T23:23:00;3.85;;;0.88;;
45322;SDS011;31382;50.200;8.674;2024-03-23T23:28:00;2.00;;;1.10;;
45322;SDS011;31382;50.200;8.674;2024-03-23T23:33:01;1.77;;;0.75;;
45322;SDS011;31382;50.200;8.674;2024-03-23T23:38:01;4.40;;;1.40;;
45322;SDS011;31382;50.200;8.674;2024-03-23T23:43:02;6.10;;;1.00;;
45322;SDS011;31382;50.200;8.674;2024-03-23T23:48:03;3.08;;;1.02;;
45322;SDS011;31382;50.200;8.674;2024-03-23T23:53:04;6.78;;;1.35;;
45322;SDS011;31382;50.200;8.674;2024-03-23T23:58:04;5.95;;;1.17;;
